createdAt,value
2022-08-01T00:00:12.350Z,0.00
2022-08-01T00:00:42.534Z,0.00
2022-08-01T00:01:13.206Z,0.00
2022-08-01T00:01:44.447Z,0.00
2022-08-01T00:02:15.361Z,0.00
2022-08-01T00:02:48.694Z,0.00
2022-08-01T00:03:17.184Z,0.00
2022-08-01T00:03:48.340Z,0.00
2022-08-01T00:04:22.207Z,0.00
2022-08-01T00:04:50.206Z,0.00
2022-08-01T00:05:22.103Z,0.00
2022-08-01T00:05:52.246Z,0.00
2022-08-01T00:06:24.193Z,0.00
2022-08-01T00:06:57.300Z,0.00
2022-08-01T00:07:25.459Z,0.00
2022-08-01T00:07:56.301Z,0.00
2022-08-01T00:08:27.122Z,0.00
2022-08-01T00:08:58.101Z,0.00
2022-08-01T00:09:29.206Z,0.00
2022-08-01T00:09:59.861Z,0.00
2022-08-01T00:10:31.620Z,0.00
2022-08-01T00:11:02.970Z,0.00
2022-08-01T00:11:33.538Z,0.00
2022-08-01T00:12:04.335Z,0.00
2022-08-01T00:12:35.134Z,0.00
2022-08-01T00:13:06.300Z,0.00
2022-08-01T00:13:37.209Z,0.00
2022-08-01T00:14:08.224Z,0.00
2022-08-01T00:14:39.305Z,0.00
2022-08-01T00:15:10.904Z,0.00
2022-08-01T00:15:54.006Z,0.00
2022-08-01T00:16:12.141Z,0.00
2022-08-01T00:16:43.299Z,0.00
2022-08-01T00:17:14.167Z,0.00
2022-08-01T00:17:48.125Z,0.00
2022-08-01T00:18:15.900Z,0.00
2022-08-01T00:18:47.145Z,0.00
2022-08-01T00:19:18.141Z,0.00
2022-08-01T00:19:49.099Z,0.00
2022-08-01T00:20:20.446Z,0.00
2022-08-01T00:20:51.089Z,0.00
2022-08-01T00:21:22.087Z,0.00
2022-08-01T00:21:53.767Z,0.00
2022-08-01T00:22:30.086Z,0.00
2022-08-01T00:22:55.260Z,0.00
2022-08-01T00:23:26.098Z,0.00
2022-08-01T00:23:57.101Z,0.00
2022-08-01T00:24:28.181Z,0.00
2022-08-01T00:24:59.174Z,0.00
2022-08-01T00:25:34.003Z,0.00
2022-08-01T00:26:00.934Z,0.00
2022-08-01T00:26:32.146Z,0.00
2022-08-01T00:27:03.141Z,0.00
2022-08-01T00:27:37.496Z,0.00
2022-08-01T00:28:07.899Z,0.00
2022-08-01T00:28:36.092Z,0.00
2022-08-01T00:29:11.551Z,0.00
2022-08-01T00:30:40.900Z,0.00
2022-08-01T00:31:12.078Z,0.00
2022-08-01T00:31:42.259Z,0.00
2022-08-01T00:32:13.165Z,0.00
2022-08-01T00:32:44.232Z,0.00
2022-08-01T00:33:15.174Z,0.00
2022-08-01T00:33:46.187Z,0.00
2022-08-01T00:34:17.197Z,0.00
2022-08-01T00:34:48.148Z,0.00
2022-08-01T00:35:19.420Z,0.00
2022-08-01T00:35:50.624Z,0.00
2022-08-01T00:36:22.934Z,0.00
2022-08-01T00:36:52.143Z,0.00
2022-08-01T00:37:23.219Z,0.00
2022-08-01T00:37:54.346Z,0.00
2022-08-01T00:38:25.218Z,0.00
2022-08-01T00:38:56.371Z,0.00
2022-08-01T00:39:27.424Z,0.00
2022-08-01T00:39:58.538Z,0.00
2022-08-01T00:40:29.877Z,0.00
2022-08-01T00:41:00.184Z,0.00
2022-08-01T00:41:31.450Z,0.00
2022-08-01T00:42:05.670Z,0.00
2022-08-01T00:42:33.211Z,0.00
2022-08-01T00:43:04.256Z,0.00
2022-08-01T00:43:35.293Z,0.00
2022-08-01T00:44:06.325Z,0.00
2022-08-01T00:44:37.221Z,0.00
2022-08-01T00:45:08.826Z,0.00
2022-08-01T00:45:45.405Z,0.00
2022-08-01T00:46:10.380Z,0.00
2022-08-01T00:46:41.465Z,0.00
2022-08-01T00:47:12.418Z,0.00
2022-08-01T00:47:42.984Z,0.00
2022-08-01T00:48:14.056Z,0.00
2022-08-01T00:48:45.528Z,0.00
2022-08-01T00:49:16.079Z,0.00
2022-08-01T00:49:47.020Z,0.00
2022-08-01T00:50:18.886Z,0.00
2022-08-01T00:50:52.418Z,0.00
2022-08-01T00:51:20.047Z,0.00
2022-08-01T00:51:54.486Z,0.00
2022-08-01T00:52:22.325Z,0.00
2022-08-01T00:52:53.414Z,0.00
2022-08-01T00:53:24.415Z,0.00
2022-08-01T00:53:58.539Z,0.00
2022-08-01T00:54:26.565Z,0.00
2022-08-01T00:54:57.867Z,0.00
2022-08-01T00:55:29.106Z,0.00
2022-08-01T00:55:59.219Z,0.00
2022-08-01T00:56:30.379Z,0.00
2022-08-01T00:57:01.544Z,0.00
2022-08-01T00:57:47.391Z,0.00
2022-08-01T00:58:35.678Z,0.00
2022-08-01T00:59:05.459Z,0.00
2022-08-01T00:59:39.832Z,0.00
2022-08-01T01:00:08.133Z,0.00
2022-08-01T01:00:52.817Z,0.00
2022-08-01T01:01:09.480Z,0.00
2022-08-01T01:01:46.761Z,0.00
2022-08-01T01:02:15.421Z,0.00
2022-08-01T01:02:43.183Z,0.00
2022-08-01T01:03:13.207Z,0.00
2022-08-01T01:03:58.766Z,0.00
2022-08-01T01:04:15.253Z,0.00
2022-08-01T01:04:46.416Z,0.00
2022-08-01T01:05:17.579Z,0.00
2022-08-01T01:05:48.098Z,0.00
2022-08-01T01:06:20.718Z,0.00
2022-08-01T01:06:53.046Z,0.00
2022-08-01T01:07:21.565Z,0.00
2022-08-01T01:07:52.378Z,0.00
2022-08-01T01:08:23.413Z,0.00
2022-08-01T01:08:54.503Z,0.00
2022-08-01T01:09:25.336Z,0.00
2022-08-01T01:09:56.298Z,0.00
2022-08-01T01:10:27.898Z,0.00
2022-08-01T01:10:58.343Z,0.00
2022-08-01T01:11:29.306Z,0.00
2022-08-01T01:12:00.423Z,0.00
2022-08-01T01:12:35.942Z,0.00
2022-08-01T01:13:02.365Z,0.00
2022-08-01T01:13:33.380Z,0.00
2022-08-01T01:14:04.418Z,0.00
2022-08-01T01:14:35.447Z,0.00
2022-08-01T01:15:07.117Z,0.00
2022-08-01T01:15:37.734Z,0.00
2022-08-01T01:16:08.495Z,0.00
2022-08-01T01:16:39.422Z,0.00
2022-08-01T01:17:10.495Z,0.00
2022-08-01T01:17:49.857Z,0.00
2022-08-01T01:18:12.419Z,0.00
2022-08-01T01:18:46.983Z,0.00
2022-08-01T01:19:14.965Z,0.00
2022-08-01T01:19:46.723Z,0.00
2022-08-01T01:20:19.618Z,0.00
2022-08-01T01:20:47.460Z,0.00
2022-08-01T01:21:18.506Z,0.00
2022-08-01T01:21:54.126Z,0.00
2022-08-01T01:22:22.945Z,0.00
2022-08-01T01:22:51.539Z,0.00
2022-08-01T01:23:22.506Z,0.00
2022-08-01T01:23:53.143Z,0.00
2022-08-01T01:24:24.219Z,0.00
2022-08-01T01:24:55.379Z,0.00
2022-08-01T01:25:36.925Z,0.00
2022-08-01T01:25:57.698Z,0.00
2022-08-01T01:26:31.258Z,0.00
2022-08-01T01:27:02.137Z,0.00
2022-08-01T01:27:30.540Z,0.00
2022-08-01T01:28:01.149Z,0.00
2022-08-01T01:28:35.379Z,0.00
2022-08-01T01:29:03.245Z,0.00
2022-08-01T01:30:00.022Z,0.00
2022-08-01T01:30:06.809Z,0.00
2022-08-01T01:30:36.582Z,0.00
2022-08-01T01:31:07.526Z,0.00
2022-08-01T01:31:38.544Z,0.00
2022-08-01T01:32:09.573Z,0.00
2022-08-01T01:32:43.127Z,0.00
2022-08-01T01:33:12.653Z,0.00
2022-08-01T01:33:47.200Z,0.00
2022-08-01T01:34:13.419Z,0.00
2022-08-01T01:34:44.619Z,0.00
2022-08-01T01:35:15.848Z,0.00
2022-08-01T01:35:49.424Z,0.00
2022-08-01T01:36:17.419Z,0.00
2022-08-01T01:36:48.493Z,0.00
2022-08-01T01:37:19.382Z,0.00
2022-08-01T01:37:50.485Z,0.00
2022-08-01T01:38:21.584Z,0.00
2022-08-01T01:38:55.287Z,0.00
2022-08-01T01:39:23.453Z,0.00
2022-08-01T01:39:54.663Z,0.00
2022-08-01T01:40:26.174Z,0.00
2022-08-01T01:40:57.592Z,0.00
2022-08-01T01:41:27.579Z,0.00
2022-08-01T01:41:58.495Z,0.00
2022-08-01T01:42:32.125Z,0.00
2022-08-01T01:43:00.425Z,0.00
2022-08-01T01:43:33.224Z,0.00
2022-08-01T01:44:02.213Z,0.00
2022-08-01T01:44:33.584Z,0.00
2022-08-01T01:45:05.303Z,0.00
2022-08-01T01:45:38.526Z,0.00
2022-08-01T01:46:09.892Z,0.00
2022-08-01T01:46:37.620Z,0.00
2022-08-01T01:47:08.586Z,0.00
2022-08-01T01:47:39.454Z,0.00
2022-08-01T01:48:10.815Z,0.00
2022-08-01T01:48:41.506Z,0.00
2022-08-01T01:49:15.683Z,0.00
2022-08-01T01:49:43.493Z,0.00
2022-08-01T01:50:14.966Z,0.00
2022-08-01T01:50:45.544Z,0.00
2022-08-01T01:51:16.224Z,0.00
2022-08-01T01:51:57.436Z,0.00
2022-08-01T01:52:18.657Z,0.00
2022-08-01T01:52:49.655Z,0.00
2022-08-01T01:53:23.098Z,0.00
2022-08-01T01:53:51.239Z,0.00
2022-08-01T01:54:22.384Z,0.00
2022-08-01T01:54:53.458Z,0.00
2022-08-01T01:55:24.922Z,0.00
2022-08-01T01:55:58.385Z,0.00
2022-08-01T01:56:26.580Z,0.00
2022-08-01T01:56:58.819Z,0.00
2022-08-01T01:57:28.566Z,0.00
2022-08-01T01:57:59.500Z,0.00
2022-08-01T01:58:30.464Z,0.00
2022-08-01T01:59:01.621Z,0.00
2022-08-01T01:59:32.646Z,0.00
2022-08-01T02:00:04.530Z,0.00
2022-08-01T02:00:34.261Z,0.00
2022-08-01T02:01:05.886Z,0.00
2022-08-01T02:01:57.999Z,0.00
2022-08-01T02:02:07.599Z,0.00
2022-08-01T02:02:41.243Z,0.00
2022-08-01T02:03:09.592Z,0.00
2022-08-01T02:03:40.646Z,0.00
2022-08-01T02:04:11.487Z,0.00
2022-08-01T02:04:43.431Z,0.00
2022-08-01T02:05:14.256Z,0.00
2022-08-01T02:05:45.339Z,0.00
2022-08-01T02:06:15.739Z,0.00
2022-08-01T02:06:49.538Z,0.00
2022-08-01T02:07:18.745Z,0.00
2022-08-01T02:07:48.653Z,0.00
2022-08-01T02:08:19.468Z,0.00
2022-08-01T02:08:50.699Z,0.00
2022-08-01T02:09:21.687Z,0.00
2022-08-01T02:09:53.277Z,0.00
2022-08-01T02:10:28.546Z,0.00
2022-08-01T02:10:54.655Z,0.00
2022-08-01T02:11:25.659Z,0.00
2022-08-01T02:12:08.336Z,0.00
2022-08-01T02:12:30.646Z,0.00
2022-08-01T02:12:58.459Z,0.00
2022-08-01T02:13:29.541Z,0.00
2022-08-01T02:14:03.366Z,0.00
2022-08-01T02:14:34.729Z,0.00
2022-08-01T02:15:08.659Z,0.00
2022-08-01T02:15:33.899Z,0.00
2022-08-01T02:16:04.728Z,0.00
2022-08-01T02:16:35.701Z,0.00
2022-08-01T02:17:06.463Z,0.00
2022-08-01T02:17:37.500Z,0.00
2022-08-01T02:18:08.528Z,0.00
2022-08-01T02:18:42.587Z,0.00
2022-08-01T02:19:10.701Z,0.00
2022-08-01T02:19:44.309Z,0.00
2022-08-01T02:20:13.374Z,0.00
2022-08-01T02:20:43.534Z,0.00
2022-08-01T02:21:14.740Z,0.00
2022-08-01T02:21:47.976Z,0.00
2022-08-01T02:22:19.558Z,0.00
2022-08-01T02:22:47.505Z,0.00
2022-08-01T02:23:18.826Z,0.00
2022-08-01T02:23:49.574Z,0.00
2022-08-01T02:24:20.717Z,0.00
2022-08-01T02:24:51.527Z,0.00
2022-08-01T02:25:22.926Z,0.00
2022-08-01T02:26:10.359Z,0.00
2022-08-01T02:26:24.774Z,0.00
2022-08-01T02:26:55.626Z,0.00
2022-08-01T02:27:26.767Z,0.00
2022-08-01T02:27:57.980Z,0.00
2022-08-01T02:28:28.700Z,0.00
2022-08-01T02:28:59.629Z,0.00
2022-08-01T02:29:35.006Z,0.00
2022-08-01T02:30:04.907Z,0.00
2022-08-01T02:30:36.057Z,0.00
2022-08-01T02:31:03.846Z,0.00
2022-08-01T02:31:34.647Z,0.00
2022-08-01T02:32:05.590Z,0.00
2022-08-01T02:32:36.977Z,0.00
2022-08-01T02:33:15.482Z,0.00
2022-08-01T02:33:41.819Z,0.00
2022-08-01T02:34:09.940Z,0.00
2022-08-01T02:34:40.879Z,0.00
2022-08-01T02:35:12.585Z,0.00
2022-08-01T02:36:30.041Z,0.00
2022-08-01T02:36:45.094Z,0.00
2022-08-01T02:37:16.703Z,0.00
2022-08-01T02:37:49.735Z,0.00
2022-08-01T02:38:17.820Z,0.00
2022-08-01T02:38:48.819Z,0.00
2022-08-01T02:39:19.906Z,0.00
2022-08-01T02:39:50.868Z,0.00
2022-08-01T02:40:22.267Z,0.00
2022-08-01T02:40:53.927Z,0.00
2022-08-01T02:41:23.420Z,0.00
2022-08-01T02:41:55.247Z,0.00
2022-08-01T02:42:25.385Z,0.00
2022-08-01T02:42:57.380Z,0.00
2022-08-01T02:43:28.169Z,0.00
2022-08-01T02:43:59.025Z,0.00
2022-08-01T02:44:30.019Z,0.00
2022-08-01T02:45:01.610Z,0.00
2022-08-01T02:45:31.703Z,0.00
2022-08-01T02:46:02.927Z,0.00
2022-08-01T02:46:36.420Z,0.00
2022-08-01T02:47:07.701Z,0.00
2022-08-01T02:47:37.286Z,0.00
2022-08-01T02:48:07.424Z,0.00
2022-08-01T02:48:38.266Z,0.00
2022-08-01T02:49:08.965Z,0.00
2022-08-01T02:49:40.139Z,0.00
2022-08-01T02:50:11.126Z,0.00
2022-08-01T02:50:42.046Z,0.00
2022-08-01T02:51:12.853Z,0.00
2022-08-01T02:51:43.625Z,0.00
2022-08-01T02:52:18.063Z,0.00
2022-08-01T02:52:48.938Z,0.00
2022-08-01T02:53:17.168Z,0.00
2022-08-01T02:53:48.028Z,0.00
2022-08-01T02:54:19.064Z,0.00
2022-08-01T02:54:49.935Z,0.00
2022-08-01T02:55:27.127Z,0.00
2022-08-01T02:55:51.665Z,0.00
2022-08-01T02:56:23.014Z,0.00
2022-08-01T02:56:54.140Z,0.00
2022-08-01T02:57:28.986Z,0.00
2022-08-01T02:57:56.888Z,0.00
2022-08-01T02:58:29.288Z,0.00
2022-08-01T02:58:57.981Z,0.00
2022-08-01T02:59:28.565Z,0.00
2022-08-01T02:59:59.946Z,0.00
2022-08-01T03:00:31.552Z,0.00
2022-08-01T03:01:01.790Z,0.00
2022-08-01T03:01:33.096Z,0.00
2022-08-01T03:02:04.472Z,0.00
2022-08-01T03:02:35.091Z,0.00
2022-08-01T03:03:06.265Z,0.00
2022-08-01T03:03:36.825Z,0.00
2022-08-01T03:04:08.927Z,0.00
2022-08-01T03:04:39.660Z,0.00
2022-08-01T03:05:11.119Z,0.00
2022-08-01T03:05:41.265Z,0.00
2022-08-01T03:06:14.820Z,0.00
2022-08-01T03:06:45.065Z,0.00
2022-08-01T03:07:14.215Z,0.00
2022-08-01T03:07:45.647Z,0.00
2022-08-01T03:08:16.250Z,0.00
2022-08-01T03:08:48.049Z,0.00
2022-08-01T03:09:21.025Z,0.00
2022-08-01T03:09:49.065Z,0.00
2022-08-01T03:10:20.625Z,0.00
2022-08-01T03:10:51.181Z,0.00
2022-08-01T03:11:21.527Z,0.00
2022-08-01T03:11:52.615Z,0.00
2022-08-01T03:12:24.346Z,0.00
2022-08-01T03:12:55.207Z,0.00
2022-08-01T03:13:26.127Z,0.00
2022-08-01T03:13:57.020Z,0.00
2022-08-01T03:14:27.989Z,0.00
2022-08-01T03:14:58.506Z,0.00
2022-08-01T03:15:33.487Z,0.00
2022-08-01T03:16:01.260Z,0.00
2022-08-01T03:16:32.295Z,0.00
2022-08-01T03:17:03.843Z,0.00
2022-08-01T03:17:33.984Z,0.00
2022-08-01T03:18:05.059Z,0.00
2022-08-01T03:18:38.494Z,0.00
2022-08-01T03:19:07.139Z,0.00
2022-08-01T03:19:38.005Z,0.00
2022-08-01T03:20:11.156Z,0.00
2022-08-01T03:20:40.064Z,0.00
2022-08-01T03:21:12.214Z,0.00
2022-08-01T03:21:41.925Z,0.00
2022-08-01T03:22:13.043Z,0.00
2022-08-01T03:22:43.985Z,0.00
2022-08-01T03:23:15.100Z,0.00
2022-08-01T03:23:45.935Z,0.00
2022-08-01T03:24:16.665Z,0.00
2022-08-01T03:24:51.009Z,0.00
2022-08-01T03:25:18.926Z,0.00
2022-08-01T03:25:50.043Z,0.00
2022-08-01T03:26:23.653Z,0.00
2022-08-01T03:26:51.803Z,0.00
2022-08-01T03:27:22.923Z,0.00
2022-08-01T03:27:56.131Z,0.00
2022-08-01T03:28:24.803Z,0.00
2022-08-01T03:28:55.565Z,0.00
2022-08-01T03:29:26.888Z,0.00
2022-08-01T03:29:58.563Z,0.00
2022-08-01T03:30:29.985Z,0.00
2022-08-01T03:31:02.931Z,0.00
2022-08-01T03:31:30.779Z,0.00
2022-08-01T03:32:02.802Z,0.00
2022-08-01T03:32:32.824Z,0.00
2022-08-01T03:33:03.985Z,0.00
2022-08-01T03:33:37.985Z,0.00
2022-08-01T03:34:06.071Z,0.00
2022-08-01T03:34:36.984Z,0.00
2022-08-01T03:35:08.215Z,0.00
2022-08-01T03:35:39.015Z,0.00
2022-08-01T03:36:12.579Z,0.00
2022-08-01T03:36:43.779Z,0.00
2022-08-01T03:37:11.586Z,0.00
2022-08-01T03:38:13.043Z,0.00
2022-08-01T03:38:47.505Z,0.00
2022-08-01T03:39:16.371Z,0.00
2022-08-01T03:39:46.587Z,0.00
2022-08-01T03:40:21.086Z,0.00
2022-08-01T03:40:48.805Z,0.00
2022-08-01T03:41:19.786Z,0.00
2022-08-01T03:41:56.241Z,0.00
2022-08-01T03:42:21.831Z,0.00
2022-08-01T03:42:52.869Z,0.00
2022-08-01T03:43:23.912Z,0.00
2022-08-01T03:43:54.793Z,0.00
2022-08-01T03:44:28.779Z,0.00
2022-08-01T03:44:58.141Z,0.00
2022-08-01T03:45:28.842Z,0.00
2022-08-01T03:45:59.034Z,0.00
2022-08-01T03:46:29.623Z,0.00
2022-08-01T03:47:01.340Z,0.00
2022-08-01T03:47:32.039Z,0.00
2022-08-01T03:48:03.036Z,0.00
2022-08-01T03:48:33.707Z,0.00
2022-08-01T03:49:07.793Z,0.00
2022-08-01T03:49:36.492Z,0.36
2022-08-01T03:50:10.673Z,0.85
2022-08-01T03:50:38.352Z,0.36
2022-08-01T03:51:08.814Z,0.36
2022-08-01T03:51:43.078Z,0.36
2022-08-01T03:52:14.913Z,0.85
2022-08-01T03:52:41.993Z,0.85
2022-08-01T03:53:12.926Z,0.85
2022-08-01T03:53:44.157Z,1.22
2022-08-01T03:54:15.114Z,1.71
2022-08-01T03:54:46.022Z,1.22
2022-08-01T03:55:20.993Z,1.22
2022-08-01T03:55:48.388Z,2.08
2022-08-01T03:56:19.742Z,1.71
2022-08-01T03:56:49.781Z,1.71
2022-08-01T03:57:36.356Z,2.57
2022-08-01T03:57:51.741Z,2.94
2022-08-01T03:58:22.752Z,1.71
2022-08-01T03:58:53.943Z,2.57
2022-08-01T03:59:24.994Z,2.57
2022-08-01T03:59:56.010Z,2.57
2022-08-01T04:00:27.661Z,2.57
2022-08-01T04:00:58.440Z,2.94
2022-08-01T04:01:29.455Z,3.43
2022-08-01T04:02:00.265Z,2.94
2022-08-01T04:02:31.143Z,2.94
2022-08-01T04:03:02.037Z,3.43
2022-08-01T04:03:33.102Z,3.43
2022-08-01T04:04:04.284Z,4.28
2022-08-01T04:04:35.312Z,4.77
2022-08-01T04:05:06.632Z,4.77
2022-08-01T04:05:37.302Z,5.63
2022-08-01T04:06:08.581Z,4.77
2022-08-01T04:06:42.254Z,4.77
2022-08-01T04:07:10.192Z,5.63
2022-08-01T04:07:41.154Z,5.63
2022-08-01T04:08:12.194Z,5.14
2022-08-01T04:08:44.309Z,5.63
2022-08-01T04:09:14.100Z,5.99
2022-08-01T04:09:45.642Z,6.48
2022-08-01T04:10:17.422Z,6.48
2022-08-01T04:10:50.442Z,6.85
2022-08-01T04:11:18.096Z,6.85
2022-08-01T04:11:50.026Z,7.34
2022-08-01T04:12:20.061Z,6.85
2022-08-01T04:12:51.125Z,7.34
2022-08-01T04:13:22.063Z,7.34
2022-08-01T04:13:53.023Z,8.19
2022-08-01T04:14:24.158Z,7.70
2022-08-01T04:14:55.037Z,7.70
2022-08-01T04:15:27.393Z,8.19
2022-08-01T04:15:57.227Z,7.70
2022-08-01T04:16:28.228Z,8.56
2022-08-01T04:16:59.103Z,8.19
2022-08-01T04:17:29.789Z,8.56
2022-08-01T04:18:01.121Z,9.05
2022-08-01T04:18:32.517Z,9.05
2022-08-01T04:19:03.381Z,9.54
2022-08-01T04:19:34.233Z,10.39
2022-08-01T04:20:07.833Z,9.91
2022-08-01T04:20:36.983Z,9.91
2022-08-01T04:21:07.301Z,10.39
2022-08-01T04:21:38.150Z,10.39
2022-08-01T04:22:08.801Z,10.77
2022-08-01T04:22:40.242Z,10.77
2022-08-01T04:23:11.202Z,11.25
2022-08-01T04:23:45.581Z,12.11
2022-08-01T04:24:13.901Z,11.62
2022-08-01T04:24:44.262Z,12.11
2022-08-01T04:25:15.850Z,12.48
2022-08-01T04:25:46.102Z,12.11
2022-08-01T04:26:17.273Z,12.11
2022-08-01T04:26:48.513Z,12.48
2022-08-01T04:27:19.223Z,12.11
2022-08-01T04:28:21.296Z,13.33
2022-08-01T04:28:52.274Z,13.33
2022-08-01T04:29:23.233Z,14.31
2022-08-01T04:29:54.303Z,14.31
2022-08-01T04:30:25.834Z,15.17
2022-08-01T04:31:01.201Z,14.68
2022-08-01T04:31:33.114Z,14.68
2022-08-01T04:32:01.550Z,14.68
2022-08-01T04:32:29.353Z,15.17
2022-08-01T04:33:00.008Z,15.53
2022-08-01T04:33:31.279Z,16.39
2022-08-01T04:34:02.342Z,15.53
2022-08-01T04:34:33.243Z,16.39
2022-08-01T04:35:04.593Z,16.88
2022-08-01T04:36:01.394Z,16.39
2022-08-01T04:36:37.392Z,17.73
2022-08-01T04:37:07.912Z,18.60
2022-08-01T04:37:38.884Z,18.60
2022-08-01T04:38:10.135Z,18.11
2022-08-01T04:38:41.120Z,18.60
2022-08-01T04:39:12.181Z,19.08
2022-08-01T04:39:50.652Z,19.45
2022-08-01T04:40:14.822Z,19.45
2022-08-01T04:40:45.153Z,20.80
2022-08-01T04:41:16.243Z,21.16
2022-08-01T04:41:47.353Z,21.65
2022-08-01T04:42:26.056Z,20.80
2022-08-01T04:42:49.282Z,22.87
2022-08-01T04:43:24.030Z,22.51
2022-08-01T04:43:51.422Z,22.87
2022-08-01T04:44:22.229Z,23.85
2022-08-01T04:44:56.342Z,23.85
2022-08-01T04:45:25.153Z,25.56
2022-08-01T04:45:57.958Z,26.42
2022-08-01T04:46:25.916Z,25.94
2022-08-01T04:47:06.060Z,26.42
2022-08-01T04:47:28.162Z,26.79
2022-08-01T04:48:11.063Z,27.28
2022-08-01T04:48:30.345Z,28.63
2022-08-01T04:49:01.333Z,28.63
2022-08-01T04:49:32.412Z,29.48
2022-08-01T04:50:03.582Z,29.48
2022-08-01T04:50:36.312Z,29.85
2022-08-01T04:51:08.327Z,30.34
2022-08-01T04:51:36.430Z,30.70
2022-08-01T04:52:07.433Z,30.70
2022-08-01T04:52:38.222Z,31.56
2022-08-01T04:53:09.382Z,30.34
2022-08-01T04:53:40.279Z,31.19
2022-08-01T04:54:11.284Z,32.42
2022-08-01T04:54:42.358Z,32.05
2022-08-01T04:55:14.078Z,32.05
2022-08-01T04:55:44.922Z,32.05
2022-08-01T04:56:15.165Z,31.56
2022-08-01T04:56:47.555Z,31.19
2022-08-01T04:57:20.189Z,30.34
2022-08-01T04:57:48.261Z,29.85
2022-08-01T04:58:19.341Z,28.63
2022-08-01T04:58:50.193Z,28.63
2022-08-01T04:59:21.322Z,28.14
2022-08-01T04:59:52.260Z,27.28
2022-08-01T05:00:24.665Z,26.79
2022-08-01T05:00:54.366Z,25.94
2022-08-01T05:01:25.312Z,25.94
2022-08-01T05:01:56.302Z,25.56
2022-08-01T05:02:30.153Z,25.56
2022-08-01T05:02:58.304Z,25.56
2022-08-01T05:03:29.392Z,24.71
2022-08-01T05:04:00.340Z,24.22
2022-08-01T05:04:34.735Z,24.22
2022-08-01T05:05:03.037Z,24.22
2022-08-01T05:05:33.563Z,24.22
2022-08-01T05:06:07.556Z,23.85
2022-08-01T05:06:36.022Z,24.71
2022-08-01T05:07:06.003Z,24.22
2022-08-01T05:07:44.147Z,24.71
2022-08-01T05:08:08.027Z,25.07
2022-08-01T05:08:39.463Z,25.07
2022-08-01T05:09:10.437Z,25.07
2022-08-01T05:09:41.474Z,25.94
2022-08-01T05:10:12.729Z,26.42
2022-08-01T05:10:43.762Z,26.42
2022-08-01T05:11:14.125Z,27.28
2022-08-01T05:11:45.503Z,27.28
2022-08-01T05:12:16.124Z,27.65
2022-08-01T05:12:47.193Z,28.63
2022-08-01T05:13:18.474Z,29.48
2022-08-01T05:13:50.157Z,30.34
2022-08-01T05:14:20.322Z,30.70
2022-08-01T05:14:52.859Z,31.56
2022-08-01T05:15:23.084Z,31.56
2022-08-01T05:15:53.647Z,32.42
2022-08-01T05:16:24.433Z,32.42
2022-08-01T05:16:55.473Z,32.90
2022-08-01T05:17:26.442Z,32.42
2022-08-01T05:18:05.911Z,33.39
2022-08-01T05:18:28.834Z,33.39
2022-08-01T05:18:59.361Z,33.39
2022-08-01T05:19:33.055Z,32.90
2022-08-01T05:20:01.623Z,33.76
2022-08-01T05:20:32.502Z,33.76
2022-08-01T05:21:03.232Z,34.25
2022-08-01T05:21:34.278Z,34.25
2022-08-01T05:22:05.866Z,34.25
2022-08-01T05:22:36.278Z,35.48
2022-08-01T05:23:10.751Z,35.97
2022-08-01T05:23:43.168Z,36.33
2022-08-01T05:24:09.442Z,36.82
2022-08-01T05:24:40.472Z,36.82
2022-08-01T05:25:12.188Z,37.19
2022-08-01T05:25:56.004Z,37.68
2022-08-01T05:26:14.577Z,38.53
2022-08-01T05:26:44.393Z,38.53
2022-08-01T05:27:15.637Z,39.39
2022-08-01T05:27:46.752Z,40.24
2022-08-01T05:28:19.046Z,40.73
2022-08-01T05:28:48.282Z,41.10
2022-08-01T05:29:19.477Z,41.96
2022-08-01T05:29:50.472Z,42.45
2022-08-01T05:30:22.398Z,43.31
2022-08-01T05:30:52.263Z,43.80
2022-08-01T05:31:23.661Z,43.80
2022-08-01T05:31:54.602Z,43.80
2022-08-01T05:32:25.933Z,43.80
2022-08-01T05:32:56.599Z,43.80
2022-08-01T05:33:27.622Z,45.02
2022-08-01T05:33:58.584Z,43.80
2022-08-01T05:34:29.554Z,43.80
2022-08-01T05:35:01.484Z,43.31
2022-08-01T05:35:47.818Z,43.80
2022-08-01T05:36:02.782Z,42.45
2022-08-01T05:36:33.472Z,42.45
2022-08-01T05:37:04.453Z,42.45
2022-08-01T05:37:35.638Z,43.80
2022-08-01T05:38:06.541Z,43.80
2022-08-01T05:38:37.663Z,42.94
2022-08-01T05:39:08.593Z,43.80
2022-08-01T05:39:39.514Z,44.65
2022-08-01T05:40:11.115Z,41.59
2022-08-01T05:40:41.538Z,36.82
2022-08-01T05:41:12.501Z,36.82
2022-08-01T05:41:43.344Z,36.33
2022-08-01T05:42:14.592Z,36.33
2022-08-01T05:42:45.742Z,36.33
2022-08-01T05:43:16.503Z,35.97
2022-08-01T05:43:47.321Z,36.33
2022-08-01T05:44:18.587Z,35.97
2022-08-01T05:44:49.477Z,35.97
2022-08-01T05:45:21.981Z,35.97
2022-08-01T05:45:51.592Z,36.33
2022-08-01T05:46:23.343Z,35.48
2022-08-01T05:46:53.592Z,35.97
2022-08-01T05:47:24.558Z,35.48
2022-08-01T05:47:55.434Z,35.97
2022-08-01T05:48:26.460Z,35.48
2022-08-01T05:49:00.371Z,35.11
2022-08-01T05:49:28.456Z,35.97
2022-08-01T05:49:59.303Z,35.97
2022-08-01T05:50:30.759Z,35.97
2022-08-01T05:51:01.387Z,35.97
2022-08-01T05:51:32.562Z,36.82
2022-08-01T05:52:04.072Z,37.19
2022-08-01T05:52:34.438Z,36.82
2022-08-01T05:53:05.502Z,37.68
2022-08-01T05:53:36.290Z,39.02
2022-08-01T05:54:07.814Z,40.24
2022-08-01T05:54:44.382Z,41.59
2022-08-01T05:55:12.718Z,48.07
2022-08-01T05:55:40.343Z,45.02
2022-08-01T05:56:11.604Z,44.65
2022-08-01T05:56:45.828Z,50.28
2022-08-01T05:57:16.192Z,80.62
2022-08-01T05:57:44.462Z,93.22
2022-08-01T05:58:15.553Z,101.90
2022-08-01T05:58:46.594Z,104.48
2022-08-01T05:59:17.453Z,112.30
2022-08-01T05:59:48.581Z,116.22
2022-08-01T06:00:20.721Z,112.30
2022-08-01T06:00:50.755Z,116.22
2022-08-01T06:01:21.581Z,118.78
2022-08-01T06:01:52.567Z,103.13
2022-08-01T06:02:23.758Z,163.07
2022-08-01T06:02:54.632Z,98.85
2022-08-01T06:03:28.513Z,77.19
2022-08-01T06:03:56.669Z,94.56
2022-08-01T06:04:27.386Z,87.59
2022-08-01T06:04:58.673Z,91.87
2022-08-01T06:05:31.063Z,158.67
2022-08-01T06:06:00.702Z,180.81
2022-08-01T06:06:32.162Z,125.76
2022-08-01T06:07:02.758Z,179.59
2022-08-01T06:07:33.517Z,163.93
2022-08-01T06:08:04.822Z,165.27
2022-08-01T06:08:36.346Z,126.61
2022-08-01T06:09:06.494Z,111.82
2022-08-01T06:09:37.527Z,106.19
2022-08-01T06:10:08.749Z,103.13
2022-08-01T06:10:39.550Z,92.73
2022-08-01T06:11:11.112Z,119.64
2022-08-01T06:11:42.202Z,154.75
2022-08-01T06:12:12.874Z,116.58
2022-08-01T06:12:43.243Z,98.36
2022-08-01T06:13:14.823Z,159.16
2022-08-01T06:13:48.683Z,145.21
2022-08-01T06:14:16.637Z,166.99
2022-08-01T06:14:47.781Z,157.44
2022-08-01T06:15:19.503Z,117.93
2022-08-01T06:15:52.636Z,145.70
2022-08-01T06:16:26.842Z,121.36
2022-08-01T06:16:54.358Z,128.82
2022-08-01T06:17:23.742Z,147.90
2022-08-01T06:17:54.678Z,186.44
2022-08-01T06:18:24.713Z,149.61
2022-08-01T06:18:56.945Z,193.90
2022-08-01T06:19:26.793Z,201.24
2022-08-01T06:19:58.295Z,195.12
2022-08-01T06:20:32.794Z,172.12
2022-08-01T06:21:02.878Z,140.44
2022-08-01T06:21:30.952Z,124.41
2022-08-01T06:22:01.837Z,104.96
2022-08-01T06:22:33.283Z,105.33
2022-08-01T06:23:11.303Z,100.19
2022-08-01T06:23:34.439Z,105.33
2022-08-01T06:24:05.954Z,125.27
2022-08-01T06:24:36.628Z,136.16
2022-08-01T06:25:08.045Z,152.68
2022-08-01T06:25:38.783Z,155.24
2022-08-01T06:26:09.806Z,141.78
2022-08-01T06:26:40.761Z,165.64
2022-08-01T06:27:21.659Z,180.81
2022-08-01T06:27:42.723Z,218.12
2022-08-01T06:28:14.151Z,235.98
2022-08-01T06:28:45.548Z,238.07
2022-08-01T06:29:15.792Z,237.21
2022-08-01T06:29:53.449Z,227.66
2022-08-01T06:30:18.605Z,217.76
2022-08-01T06:30:48.880Z,205.15
2022-08-01T06:31:19.704Z,191.70
2022-08-01T06:31:50.782Z,171.27
2022-08-01T06:32:27.195Z,137.02
2022-08-01T06:32:52.581Z,110.10
2022-08-01T06:33:23.510Z,87.10
2022-08-01T06:33:54.519Z,69.73
2022-08-01T06:34:25.542Z,61.53
2022-08-01T06:34:56.730Z,57.25
2022-08-01T06:35:28.483Z,53.34
2022-08-01T06:36:00.643Z,51.50
2022-08-01T06:36:30.022Z,54.19
2022-08-01T06:37:00.693Z,57.62
2022-08-01T06:37:36.203Z,66.31
2022-08-01T06:38:05.141Z,77.19
2022-08-01T06:38:36.718Z,96.65
2022-08-01T06:39:04.773Z,112.30
2022-08-01T06:39:37.958Z,137.87
2022-08-01T06:40:13.403Z,128.33
2022-08-01T06:40:37.901Z,111.44
2022-08-01T06:41:08.701Z,97.50
2022-08-01T06:41:39.342Z,100.56
2022-08-01T06:42:10.755Z,105.82
2022-08-01T06:42:41.549Z,102.27
2022-08-01T06:43:12.381Z,63.73
2022-08-01T06:43:43.793Z,59.33
2022-08-01T06:44:14.337Z,59.33
2022-08-01T06:44:45.789Z,58.48
2022-08-01T06:45:17.873Z,57.25
2022-08-01T06:45:49.374Z,66.80
2022-08-01T06:46:18.420Z,85.02
2022-08-01T06:46:58.882Z,170.05
2022-08-01T06:47:20.904Z,171.76
2022-08-01T06:47:51.873Z,169.56
2022-08-01T06:48:23.805Z,94.56
2022-08-01T06:48:53.629Z,77.19
2022-08-01T06:49:25.748Z,58.97
2022-08-01T06:49:55.723Z,52.48